createdAt,value
2019-05-09T00:03:00.399Z,8.30
2019-05-09T00:08:07.687Z,8.20
2019-05-09T00:13:14.741Z,8.30
2019-05-09T00:18:23.297Z,8.20
2019-05-09T00:23:30.633Z,8.30
2019-05-09T00:28:40.212Z,8.20
2019-05-09T00:33:53.353Z,8.20
2019-05-09T00:39:00.517Z,8.20
2019-05-09T00:44:13.993Z,8.20
2019-05-09T00:49:23.528Z,8.30
2019-05-09T00:54:30.873Z,8.30
2019-05-09T00:59:38.088Z,8.30
2019-05-09T01:04:45.294Z,8.30
2019-05-09T01:09:54.332Z,8.30
2019-05-09T01:15:03.323Z,8.30
2019-05-09T01:20:11.205Z,8.40
2019-05-09T01:25:18.427Z,8.30
2019-05-09T01:30:25.887Z,8.30
2019-05-09T01:35:34.008Z,8.30
2019-05-09T01:40:43.863Z,8.40
2019-05-09T01:45:51.267Z,8.40
2019-05-09T01:50:58.569Z,8.40
2019-05-09T01:56:05.804Z,8.40
2019-05-09T02:01:13.602Z,8.40
2019-05-09T02:06:21.060Z,8.40
2019-05-09T02:11:39.459Z,8.40
2019-05-09T02:16:50.071Z,8.30
2019-05-09T02:21:57.761Z,8.30
2019-05-09T02:27:04.953Z,8.30
2019-05-09T02:32:14.325Z,8.30
2019-05-09T02:37:21.115Z,8.20
2019-05-09T02:42:28.284Z,8.20
2019-05-09T02:47:38.496Z,8.20
2019-05-09T02:52:44.514Z,8.20
2019-05-09T02:57:53.135Z,8.20
2019-05-09T03:03:09.272Z,8.10
2019-05-09T03:08:18.993Z,8.10
2019-05-09T03:13:25.161Z,8.10
2019-05-09T03:18:32.329Z,8.20
2019-05-09T03:23:39.299Z,8.10
2019-05-09T03:29:11.985Z,8.10
2019-05-09T03:34:19.693Z,8.10
2019-05-09T03:39:27.594Z,8.20
2019-05-09T03:44:35.060Z,8.10
2019-05-09T03:49:42.236Z,8.20
2019-05-09T03:54:49.380Z,8.30
2019-05-09T03:59:57.328Z,8.30
2019-05-09T04:05:04.814Z,8.40
2019-05-09T04:10:12.102Z,8.40
2019-05-09T04:15:19.323Z,8.50
2019-05-09T04:20:27.712Z,8.40
2019-05-09T04:25:37.665Z,8.50
2019-05-09T04:30:44.934Z,8.70
2019-05-09T04:35:52.220Z,8.80
2019-05-09T04:40:59.427Z,8.80
2019-05-09T04:46:07.998Z,8.90
2019-05-09T04:51:15.178Z,9.00
2019-05-09T04:56:27.899Z,9.10
2019-05-09T05:02:08.645Z,9.30
2019-05-09T05:07:15.228Z,9.30
2019-05-09T05:12:22.679Z,9.40
2019-05-09T05:17:30.718Z,9.60
2019-05-09T05:22:44.484Z,9.70
2019-05-09T05:27:51.694Z,9.80
2019-05-09T05:33:02.844Z,9.80
2019-05-09T05:38:10.338Z,10.00
2019-05-09T05:43:17.574Z,10.00
2019-05-09T05:48:28.958Z,10.10
2019-05-09T05:53:37.937Z,10.20
2019-05-09T05:58:44.871Z,10.30
2019-05-09T06:03:52.878Z,10.30
2019-05-09T06:09:00.048Z,10.40
2019-05-09T06:14:11.767Z,10.60
2019-05-09T06:19:17.919Z,10.70
2019-05-09T06:24:28.200Z,10.90
2019-05-09T06:29:38.379Z,11.10
2019-05-09T06:34:47.572Z,11.30
2019-05-09T06:39:54.120Z,11.40
2019-05-09T06:45:18.173Z,11.60
2019-05-09T06:50:27.177Z,11.70
2019-05-09T06:55:34.177Z,11.70
2019-05-09T07:00:49.688Z,11.80
2019-05-09T07:06:21.848Z,11.90
2019-05-09T07:11:29.038Z,12.00
2019-05-09T07:16:37.658Z,12.30
2019-05-09T07:22:09.405Z,12.40
2019-05-09T07:27:17.956Z,12.50
2019-05-09T07:32:27.705Z,12.60
2019-05-09T07:37:35.157Z,12.70
2019-05-09T07:42:42.312Z,12.60
2019-05-09T07:47:49.419Z,12.70
2019-05-09T07:52:58.245Z,12.90
2019-05-09T07:58:08.089Z,13.00
2019-05-09T08:03:14.715Z,13.00
2019-05-09T08:08:22.237Z,13.20
2019-05-09T08:13:29.415Z,13.30
2019-05-09T08:18:37.815Z,13.60
2019-05-09T08:23:44.882Z,13.70
2019-05-09T08:28:52.748Z,13.90
2019-05-09T08:33:59.942Z,13.90
2019-05-09T08:39:08.504Z,14.10
2019-05-09T08:44:18.444Z,14.10
2019-05-09T08:49:29.805Z,14.30
2019-05-09T08:54:41.168Z,14.30
2019-05-09T08:59:50.793Z,14.20
2019-05-09T09:04:58.519Z,14.30
2019-05-09T09:10:08.508Z,14.30
2019-05-09T09:15:18.130Z,14.30
2019-05-09T09:20:25.789Z,14.30
2019-05-09T09:25:33.367Z,14.40
2019-05-09T09:30:41.285Z,14.60
2019-05-09T09:35:49.195Z,14.80
2019-05-09T09:40:58.132Z,14.90
2019-05-09T09:46:11.846Z,14.90
2019-05-09T09:51:14.155Z,14.90
2019-05-09T09:56:22.619Z,14.80
2019-05-09T10:01:32.675Z,14.80
2019-05-09T10:06:39.985Z,15.00
2019-05-09T10:11:48.321Z,15.20
2019-05-09T10:17:30.120Z,15.30
2019-05-09T10:22:58.925Z,15.30
2019-05-09T10:27:57.997Z,15.70
2019-05-09T10:33:05.567Z,15.80
2019-05-09T10:38:13.951Z,15.90
2019-05-09T10:43:39.911Z,15.80
2019-05-09T10:48:53.031Z,15.60
2019-05-09T10:54:00.143Z,15.40
2019-05-09T10:59:07.945Z,15.70
2019-05-09T11:04:17.903Z,15.70
2019-05-09T11:09:24.795Z,15.50
2019-05-09T11:14:36.874Z,15.70
2019-05-09T11:19:40.903Z,15.70
2019-05-09T11:24:50.992Z,15.50
2019-05-09T11:29:57.978Z,15.40
2019-05-09T11:35:08.988Z,15.20
2019-05-09T11:40:16.275Z,15.00
2019-05-09T11:45:23.484Z,14.80
2019-05-09T11:50:30.677Z,14.60
2019-05-09T11:55:43.048Z,14.60
2019-05-09T12:00:48.621Z,14.40
2019-05-09T12:05:58.165Z,14.50
2019-05-09T12:11:04.861Z,14.70
2019-05-09T12:16:12.179Z,15.30
2019-05-09T12:21:19.655Z,15.70
2019-05-09T12:26:29.242Z,15.60
2019-05-09T12:31:38.727Z,15.00
2019-05-09T12:36:49.277Z,14.70
2019-05-09T12:41:57.689Z,14.40
2019-05-09T12:47:03.728Z,14.20
2019-05-09T12:52:10.858Z,14.00
2019-05-09T12:57:19.427Z,13.90
2019-05-09T13:02:28.095Z,13.80
2019-05-09T13:07:38.075Z,13.60
2019-05-09T13:12:43.895Z,13.80
2019-05-09T13:17:51.780Z,14.00
2019-05-09T13:22:59.005Z,14.00
2019-05-09T13:28:08.279Z,13.80
2019-05-09T13:33:18.947Z,13.90
2019-05-09T13:38:27.605Z,14.20
2019-05-09T13:43:34.823Z,14.00
2019-05-09T13:49:04.423Z,13.80
2019-05-09T13:53:53.157Z,13.60
2019-05-09T13:59:01.623Z,13.50
2019-05-09T14:04:08.826Z,13.50
2019-05-09T14:09:20.008Z,13.50
2019-05-09T14:14:27.902Z,13.50
2019-05-09T14:19:44.428Z,13.30
2019-05-09T14:24:48.206Z,13.00
2019-05-09T14:29:55.853Z,12.80
2019-05-09T14:35:03.197Z,12.70
2019-05-09T14:40:11.386Z,12.50
2019-05-09T14:45:19.061Z,12.30
2019-05-09T14:50:28.515Z,12.10
2019-05-09T14:55:35.460Z,12.10
2019-05-09T15:00:43.435Z,12.10
2019-05-09T15:05:51.863Z,12.00
2019-05-09T15:10:59.685Z,11.80
2019-05-09T15:16:08.842Z,11.80
2019-05-09T15:21:16.637Z,11.80
2019-05-09T15:26:24.267Z,11.70
2019-05-09T15:31:31.782Z,11.60
2019-05-09T15:36:39.790Z,11.60
2019-05-09T15:41:47.854Z,11.60
2019-05-09T15:47:00.642Z,11.50
2019-05-09T15:52:08.918Z,11.60
2019-05-09T15:57:17.610Z,11.60
2019-05-09T16:02:28.202Z,11.40
2019-05-09T16:07:37.363Z,11.40
2019-05-09T16:12:44.420Z,11.40
2019-05-09T16:17:52.768Z,11.40
2019-05-09T16:23:01.570Z,11.40
2019-05-09T16:28:09.309Z,11.40
2019-05-09T16:33:18.388Z,11.30
2019-05-09T16:38:41.321Z,11.30
2019-05-09T16:43:34.570Z,11.30
2019-05-09T16:48:41.659Z,11.20
2019-05-09T16:53:49.881Z,11.10
2019-05-09T16:58:57.913Z,11.10
2019-05-09T17:04:05.151Z,11.00
2019-05-09T17:09:13.972Z,11.00
2019-05-09T17:14:21.293Z,11.00
2019-05-09T17:19:28.451Z,10.90
2019-05-09T17:24:37.378Z,10.90
2019-05-09T17:29:44.574Z,10.80
2019-05-09T17:34:51.848Z,10.80
2019-05-09T17:39:59.035Z,10.80
2019-05-09T17:45:08.290Z,10.80
2019-05-09T17:50:18.609Z,10.80
2019-05-09T17:55:26.556Z,10.70
2019-05-09T18:00:33.809Z,10.60
2019-05-09T18:05:40.925Z,10.60
2019-05-09T18:10:48.743Z,10.50
2019-05-09T18:15:55.852Z,10.40
2019-05-09T18:21:03.960Z,10.40
2019-05-09T18:26:11.481Z,10.30
2019-05-09T18:31:18.583Z,10.30
2019-05-09T18:36:28.069Z,10.20
2019-05-09T18:41:35.158Z,10.20
2019-05-09T18:46:42.284Z,10.10
2019-05-09T18:52:02.817Z,10.10
2019-05-09T18:56:58.949Z,10.10
2019-05-09T19:02:08.303Z,10.10
2019-05-09T19:07:22.541Z,10.00
2019-05-09T19:12:24.412Z,10.00
2019-05-09T19:18:06.720Z,10.00
2019-05-09T19:23:14.090Z,9.90
2019-05-09T19:28:24.031Z,9.90
2019-05-09T19:33:29.874Z,9.90
2019-05-09T19:38:36.982Z,9.80
2019-05-09T19:43:44.088Z,9.90
2019-05-09T19:48:52.454Z,9.80
2019-05-09T19:53:59.567Z,9.90
2019-05-09T19:59:08.089Z,9.80
2019-05-09T20:04:17.769Z,9.80
2019-05-09T20:09:31.254Z,9.80
2019-05-09T20:14:44.355Z,9.80
2019-05-09T20:19:51.780Z,9.80
2019-05-09T20:24:59.372Z,9.80
2019-05-09T20:30:07.005Z,9.80
2019-05-09T20:35:14.977Z,9.80
2019-05-09T20:40:22.335Z,9.80
2019-05-09T20:45:30.007Z,9.80
2019-05-09T20:50:37.965Z,9.80
2019-05-09T20:55:45.602Z,9.80
2019-05-09T21:00:52.845Z,9.80
2019-05-09T21:06:01.123Z,9.70
2019-05-09T21:11:09.863Z,9.80
2019-05-09T21:16:17.630Z,9.70
2019-05-09T21:21:26.119Z,9.70
2019-05-09T21:26:33.805Z,9.70
2019-05-09T21:31:41.825Z,9.70
2019-05-09T21:36:49.420Z,9.70
2019-05-09T21:41:56.586Z,9.70
2019-05-09T21:47:03.791Z,9.70
2019-05-09T21:52:11.170Z,9.70
2019-05-09T21:57:18.297Z,9.70
2019-05-09T22:02:25.584Z,9.70
2019-05-09T22:07:32.742Z,9.70
2019-05-09T22:12:39.797Z,9.60
2019-05-09T22:17:47.369Z,9.60
2019-05-09T22:22:54.502Z,9.60
2019-05-09T22:28:02.062Z,9.60
2019-05-09T22:33:09.261Z,9.60
2019-05-09T22:38:16.855Z,9.60
2019-05-09T22:43:23.929Z,9.60
2019-05-09T22:48:31.130Z,9.50
2019-05-09T22:53:38.400Z,9.60
2019-05-09T22:58:46.037Z,9.60
2019-05-09T23:03:53.428Z,9.60
2019-05-09T23:09:00.499Z,9.60
2019-05-09T23:14:07.738Z,9.50
2019-05-09T23:19:14.756Z,9.60
2019-05-09T23:24:28.448Z,9.60
2019-05-09T23:29:31.995Z,9.60
2019-05-09T23:34:39.048Z,9.50
2019-05-09T23:39:48.184Z,9.50
2019-05-09T23:44:55.262Z,9.60
2019-05-09T23:50:02.462Z,9.60
2019-05-09T23:55:27.103Z,9.60
